createdAt,value
2019-02-20T00:00:44.388Z,85.11
2019-02-20T00:01:44.395Z,85.21
2019-02-20T00:02:44.317Z,84.79
2019-02-20T00:03:44.329Z,84.89
2019-02-20T00:04:44.309Z,84.69
2019-02-20T00:05:44.303Z,85.31
2019-02-20T00:06:44.298Z,85.83
2019-02-20T00:07:44.284Z,86.15
2019-02-20T00:08:44.316Z,86.05
2019-02-20T00:09:44.242Z,85.52
2019-02-20T00:10:44.238Z,85.63
2019-02-20T00:11:44.235Z,85.52
2019-02-20T00:12:44.216Z,85.94
2019-02-20T00:13:44.219Z,86.05
2019-02-20T00:14:44.185Z,85.88
2019-02-20T00:15:44.243Z,85.83
2019-02-20T00:16:44.210Z,85.94
2019-02-20T00:17:44.500Z,85.77
2019-02-20T00:18:44.155Z,85.88
2019-02-20T00:19:44.177Z,85.98
2019-02-20T00:20:44.119Z,86.29
2019-02-20T00:21:44.120Z,86.40
2019-02-20T00:22:44.263Z,86.82
2019-02-20T00:23:44.092Z,86.61
2019-02-20T00:24:44.082Z,86.92
2019-02-20T00:25:44.064Z,87.23
2019-02-20T00:26:44.060Z,87.34
2019-02-20T00:27:44.061Z,87.45
2019-02-20T00:28:44.031Z,87.45
2019-02-20T00:29:44.092Z,87.76
2019-02-20T00:30:44.027Z,87.55
2019-02-20T00:31:44.012Z,87.76
2019-02-20T00:32:44.031Z,87.23
2019-02-20T00:33:44.011Z,87.34
2019-02-20T00:34:43.981Z,87.07
2019-02-20T00:35:43.955Z,86.85
2019-02-20T00:36:43.960Z,86.08
2019-02-20T00:37:43.953Z,86.44
2019-02-20T00:38:43.942Z,86.54
2019-02-20T00:39:43.938Z,86.54
2019-02-20T00:40:43.904Z,86.44
2019-02-20T00:41:43.897Z,86.54
2019-02-20T00:42:43.887Z,86.85
2019-02-20T00:43:43.877Z,86.85
2019-02-20T00:44:43.868Z,87.17
2019-02-20T00:45:43.852Z,86.96
2019-02-20T00:46:43.855Z,87.27
2019-02-20T00:47:43.832Z,87.48
2019-02-20T00:48:43.819Z,87.38
2019-02-20T00:49:43.807Z,87.48
2019-02-20T00:50:43.799Z,87.17
2019-02-20T00:51:43.786Z,87.38
2019-02-20T00:52:49.875Z,87.07
2019-02-20T00:53:44.756Z,87.80
2019-02-20T00:54:43.809Z,87.27
2019-02-20T00:55:43.749Z,87.48
2019-02-20T00:56:43.775Z,87.27
2019-02-20T00:57:43.717Z,87.38
2019-02-20T00:58:43.717Z,87.38
2019-02-20T00:59:43.728Z,87.10
2019-02-20T01:00:43.687Z,87.21
2019-02-20T01:01:43.685Z,87.31
2019-02-20T01:02:43.677Z,86.79
2019-02-20T01:03:43.667Z,86.79
2019-02-20T01:04:43.656Z,86.47
2019-02-20T01:05:43.747Z,86.47
2019-02-20T01:06:45.300Z,86.79
2019-02-20T01:07:43.624Z,86.79
2019-02-20T01:08:43.608Z,86.79
2019-02-20T01:09:43.591Z,87.42
2019-02-20T01:10:43.582Z,87.42
2019-02-20T01:11:43.560Z,87.10
2019-02-20T01:12:43.570Z,87.10
2019-02-20T01:13:43.560Z,87.31
2019-02-20T01:14:43.541Z,87.42
2019-02-20T01:15:43.526Z,87.52
2019-02-20T01:16:43.514Z,87.42
2019-02-20T01:17:43.684Z,87.56
2019-02-20T01:18:43.487Z,87.31
2019-02-20T01:19:43.477Z,87.25
2019-02-20T01:20:43.474Z,87.31
2019-02-20T01:21:43.478Z,87.46
2019-02-20T01:22:43.469Z,87.73
2019-02-20T01:23:43.431Z,88.19
2019-02-20T01:24:43.423Z,88.26
2019-02-20T01:25:43.411Z,87.21
2019-02-20T01:26:43.403Z,87.42
2019-02-20T01:27:43.489Z,87.25
2019-02-20T01:28:43.381Z,86.83
2019-02-20T01:29:43.366Z,87.04
2019-02-20T01:30:43.359Z,87.15
2019-02-20T01:31:43.346Z,86.83
2019-02-20T01:32:43.341Z,86.83
2019-02-20T01:33:43.339Z,87.15
2019-02-20T01:34:43.311Z,87.56
2019-02-20T01:35:43.298Z,87.56
2019-02-20T01:36:43.287Z,87.56
2019-02-20T01:37:43.277Z,87.35
2019-02-20T01:38:43.288Z,87.35
2019-02-20T01:39:43.261Z,87.15
2019-02-20T01:40:43.274Z,87.15
2019-02-20T01:41:43.232Z,87.04
2019-02-20T01:42:43.239Z,87.04
2019-02-20T01:43:43.223Z,87.04
2019-02-20T01:44:43.215Z,86.93
2019-02-20T01:45:43.195Z,86.93
2019-02-20T01:46:43.178Z,87.15
2019-02-20T01:47:43.178Z,86.83
2019-02-20T01:48:43.219Z,87.46
2019-02-20T01:49:43.152Z,87.46
2019-02-20T01:50:43.135Z,87.56
2019-02-20T01:51:44.966Z,87.56
2019-02-20T01:52:43.120Z,87.35
2019-02-20T01:53:43.128Z,87.56
2019-02-20T01:54:43.097Z,87.56
2019-02-20T01:55:43.217Z,87.50
2019-02-20T01:56:43.083Z,87.46
2019-02-20T01:57:43.068Z,87.60
2019-02-20T01:58:43.078Z,87.04
2019-02-20T01:59:43.052Z,87.39
2019-02-20T02:00:43.036Z,87.39
2019-02-20T02:01:43.028Z,87.50
2019-02-20T02:02:43.031Z,87.29
2019-02-20T02:03:43.022Z,87.39
2019-02-20T02:04:42.986Z,87.18
2019-02-20T02:05:42.978Z,87.18
2019-02-20T02:06:42.983Z,87.50
2019-02-20T02:07:42.951Z,87.39
2019-02-20T02:08:42.969Z,87.81
2019-02-20T02:09:42.948Z,87.96
2019-02-20T02:10:42.925Z,87.60
2019-02-20T02:11:43.002Z,87.60
2019-02-20T02:12:42.900Z,87.50
2019-02-20T02:13:42.963Z,87.74
2019-02-20T02:14:42.884Z,87.96
2019-02-20T02:15:42.919Z,88.23
2019-02-20T02:16:42.954Z,88.23
2019-02-20T02:17:43.182Z,88.54
2019-02-20T02:18:42.858Z,88.34
2019-02-20T02:19:42.884Z,88.12
2019-02-20T02:20:42.807Z,87.71
2019-02-20T02:21:42.800Z,88.27
2019-02-20T02:22:42.784Z,88.34
2019-02-20T02:23:42.803Z,88.37
2019-02-20T02:24:42.776Z,88.23
2019-02-20T02:25:42.778Z,87.71
2019-02-20T02:26:42.758Z,88.69
2019-02-20T02:27:42.752Z,88.59
2019-02-20T02:28:42.749Z,88.37
2019-02-20T02:29:42.713Z,88.27
2019-02-20T02:30:42.698Z,88.79
2019-02-20T02:31:42.691Z,88.48
2019-02-20T02:32:42.686Z,88.59
2019-02-20T02:33:42.709Z,88.37
2019-02-20T02:34:42.663Z,88.27
2019-02-20T02:35:42.688Z,88.17
2019-02-20T02:36:42.632Z,87.85
2019-02-20T02:37:42.623Z,88.27
2019-02-20T02:38:42.621Z,88.17
2019-02-20T02:39:42.604Z,88.69
2019-02-20T02:40:42.597Z,88.27
2019-02-20T02:41:44.772Z,88.27
2019-02-20T02:42:42.588Z,88.48
2019-02-20T02:43:42.583Z,88.79
2019-02-20T02:44:42.592Z,89.42
2019-02-20T02:45:42.551Z,89.22
2019-02-20T02:46:42.528Z,89.22
2019-02-20T02:47:42.516Z,89.32
2019-02-20T02:48:42.515Z,89.00
2019-02-20T02:49:42.506Z,88.90
2019-02-20T02:50:42.502Z,88.59
2019-02-20T02:51:42.536Z,88.69
2019-02-20T02:52:42.514Z,88.37
2019-02-20T02:53:42.447Z,88.59
2019-02-20T02:54:42.470Z,88.17
2019-02-20T02:55:42.473Z,88.37
2019-02-20T02:56:42.415Z,88.37
2019-02-20T02:57:42.413Z,88.17
2019-02-20T02:58:42.478Z,88.27
2019-02-20T02:59:42.418Z,88.17
2019-02-20T03:00:42.399Z,88.17
2019-02-20T03:01:42.358Z,88.73
2019-02-20T03:02:42.374Z,88.90
2019-02-20T03:03:42.341Z,89.63
2019-02-20T03:04:42.334Z,89.63
2019-02-20T03:05:42.334Z,89.63
2019-02-20T03:06:42.312Z,88.90
2019-02-20T03:07:42.310Z,88.06
2019-02-20T03:08:42.284Z,89.00
2019-02-20T03:09:42.328Z,89.47
2019-02-20T03:10:42.310Z,88.62
2019-02-20T03:11:42.368Z,88.42
2019-02-20T03:12:42.245Z,88.84
2019-02-20T03:13:42.242Z,88.52
2019-02-20T03:14:42.235Z,88.84
2019-02-20T03:15:42.223Z,90.09
2019-02-20T03:16:42.292Z,89.40
2019-02-20T03:17:42.198Z,88.52
2019-02-20T03:18:42.178Z,88.52
2019-02-20T03:19:42.161Z,88.24
2019-02-20T03:20:42.212Z,88.73
2019-02-20T03:21:42.211Z,88.87
2019-02-20T03:22:42.146Z,88.77
2019-02-20T03:23:42.124Z,88.62
2019-02-20T03:24:42.114Z,88.42
2019-02-20T03:25:42.137Z,88.98
2019-02-20T03:26:42.089Z,88.87
2019-02-20T03:27:42.079Z,89.04
2019-02-20T03:28:42.075Z,88.56
2019-02-20T03:29:42.060Z,88.87
2019-02-20T03:30:42.072Z,88.35
2019-02-20T03:31:42.077Z,88.67
2019-02-20T03:32:42.046Z,88.46
2019-02-20T03:33:42.045Z,88.67
2019-02-20T03:34:42.020Z,88.46
2019-02-20T03:35:42.032Z,88.35
2019-02-20T03:36:41.996Z,88.14
2019-02-20T03:37:41.983Z,88.56
2019-02-20T03:38:42.000Z,88.14
2019-02-20T03:39:41.962Z,88.98
2019-02-20T03:40:41.985Z,88.87
2019-02-20T03:41:42.002Z,88.14
2019-02-20T03:42:41.915Z,88.35
2019-02-20T03:43:41.901Z,89.44
2019-02-20T03:44:41.914Z,89.34
2019-02-20T03:45:41.880Z,90.34
2019-02-20T03:46:41.921Z,89.92
2019-02-20T03:47:41.861Z,90.23
2019-02-20T03:48:41.851Z,90.23
2019-02-20T03:49:41.866Z,90.03
2019-02-20T03:50:41.865Z,90.34
2019-02-20T03:51:41.923Z,89.92
2019-02-20T03:52:41.804Z,89.92
2019-02-20T03:53:51.152Z,90.55
2019-02-20T03:54:42.821Z,89.92
2019-02-20T03:55:41.780Z,90.13
2019-02-20T03:56:41.776Z,89.19
2019-02-20T03:57:41.775Z,89.09
2019-02-20T03:58:41.826Z,88.87
2019-02-20T03:59:41.754Z,89.19
2019-02-20T04:00:41.742Z,89.19
2019-02-20T04:01:41.748Z,88.98
2019-02-20T04:02:41.695Z,88.14
2019-02-20T04:03:41.690Z,88.14
2019-02-20T04:04:41.682Z,87.93
2019-02-20T04:05:41.670Z,88.24
2019-02-20T04:06:41.721Z,88.29
2019-02-20T04:07:41.685Z,88.56
2019-02-20T04:08:41.636Z,88.81
2019-02-20T04:09:41.623Z,88.87
2019-02-20T04:10:41.613Z,88.77
2019-02-20T04:11:41.638Z,88.77
2019-02-20T04:12:41.599Z,88.46
2019-02-20T04:13:41.625Z,88.87
2019-02-20T04:14:41.599Z,88.77
2019-02-20T04:15:41.557Z,87.93
2019-02-20T04:16:41.615Z,88.67
2019-02-20T04:17:41.560Z,88.46
2019-02-20T04:18:41.553Z,88.35
2019-02-20T04:19:41.523Z,88.35
2019-02-20T04:20:41.501Z,88.04
2019-02-20T04:21:41.586Z,88.71
2019-02-20T04:22:41.493Z,88.81
2019-02-20T04:23:41.471Z,88.67
2019-02-20T04:24:41.493Z,88.60
2019-02-20T04:25:41.460Z,88.81
2019-02-20T04:26:41.546Z,88.81
2019-02-20T04:27:41.454Z,88.71
2019-02-20T04:28:41.490Z,88.29
2019-02-20T04:29:41.426Z,88.18
2019-02-20T04:30:41.406Z,88.14
2019-02-20T04:31:41.426Z,88.49
2019-02-20T04:32:41.387Z,88.87
2019-02-20T04:33:41.368Z,88.49
2019-02-20T04:34:41.358Z,88.60
2019-02-20T04:35:41.343Z,88.35
2019-02-20T04:36:41.358Z,87.97
2019-02-20T04:37:41.361Z,88.49
2019-02-20T04:38:41.326Z,88.92
2019-02-20T04:39:41.307Z,88.71
2019-02-20T04:40:41.302Z,88.49
2019-02-20T04:41:41.289Z,88.60
2019-02-20T04:42:41.330Z,89.19
2019-02-20T04:43:41.254Z,88.60
2019-02-20T04:44:41.250Z,88.18
2019-02-20T04:45:41.233Z,88.49
2019-02-20T04:46:41.233Z,89.23
2019-02-20T04:47:41.241Z,89.02
2019-02-20T04:48:41.218Z,88.60
2019-02-20T04:49:41.245Z,88.18
2019-02-20T04:50:41.179Z,88.29
2019-02-20T04:51:41.170Z,88.39
2019-02-20T04:52:41.192Z,88.18
2019-02-20T04:53:41.146Z,88.18
2019-02-20T04:54:41.206Z,88.29
2019-02-20T04:55:41.139Z,88.92
2019-02-20T04:56:41.117Z,88.92
2019-02-20T04:57:41.110Z,88.92
2019-02-20T04:58:41.124Z,88.49
2019-02-20T04:59:41.108Z,89.02
2019-02-20T05:00:41.072Z,88.49
2019-02-20T05:01:41.066Z,88.60
2019-02-20T05:02:41.064Z,88.49
2019-02-20T05:03:41.043Z,88.18
2019-02-20T05:04:41.033Z,88.18
2019-02-20T05:05:41.045Z,88.29
2019-02-20T05:06:41.013Z,88.18
2019-02-20T05:07:41.009Z,88.92
2019-02-20T05:08:40.993Z,89.48
2019-02-20T05:09:41.048Z,89.06
2019-02-20T05:10:40.963Z,89.06
2019-02-20T05:11:40.957Z,88.54
2019-02-20T05:12:40.967Z,88.85
2019-02-20T05:13:40.949Z,89.90
2019-02-20T05:14:40.947Z,89.79
2019-02-20T05:15:40.926Z,89.59
2019-02-20T05:16:40.933Z,89.59
2019-02-20T05:17:40.950Z,89.44
2019-02-20T05:18:40.881Z,90.07
2019-02-20T05:19:40.871Z,89.23
2019-02-20T05:20:40.855Z,88.92
2019-02-20T05:21:40.859Z,89.17
2019-02-20T05:22:40.845Z,89.48
2019-02-20T05:23:42.753Z,89.54
2019-02-20T05:24:40.814Z,90.07
2019-02-20T05:25:40.907Z,90.17
2019-02-20T05:26:40.792Z,90.07
2019-02-20T05:27:40.816Z,89.54
2019-02-20T05:28:40.785Z,89.44
2019-02-20T05:29:40.795Z,90.07
2019-02-20T05:30:40.772Z,90.49
2019-02-20T05:31:40.747Z,90.66
2019-02-20T05:32:40.864Z,90.76
2019-02-20T05:33:40.737Z,91.64
2019-02-20T05:34:40.709Z,90.66
2019-02-20T05:35:40.699Z,89.82
2019-02-20T05:36:40.682Z,90.03
2019-02-20T05:37:40.689Z,89.82
2019-02-20T05:38:40.694Z,90.13
2019-02-20T05:39:40.673Z,90.03
2019-02-20T05:40:40.658Z,90.45
2019-02-20T05:41:40.625Z,90.66
2019-02-20T05:42:40.638Z,91.81
2019-02-20T05:43:40.604Z,91.50
2019-02-20T05:44:40.606Z,92.44
2019-02-20T05:45:40.584Z,92.33
2019-02-20T05:46:40.576Z,92.23
2019-02-20T05:47:40.577Z,92.65
2019-02-20T05:48:40.598Z,93.59
2019-02-20T05:49:40.551Z,94.32
2019-02-20T05:50:40.531Z,94.74
2019-02-20T05:51:40.520Z,94.32
2019-02-20T05:52:40.560Z,94.43
2019-02-20T05:53:40.501Z,94.54
2019-02-20T05:54:40.498Z,95.37
2019-02-20T05:55:40.494Z,95.06
2019-02-20T05:56:40.508Z,95.48
2019-02-20T05:57:40.470Z,95.58
2019-02-20T05:58:40.468Z,95.79
2019-02-20T05:59:40.443Z,95.37
2019-02-20T06:00:40.422Z,95.58
2019-02-20T06:01:40.497Z,95.58
2019-02-20T06:02:40.405Z,95.48
2019-02-20T06:03:40.396Z,95.54
2019-02-20T06:04:40.383Z,95.90
2019-02-20T06:05:40.378Z,95.68
2019-02-20T06:06:40.380Z,95.86
2019-02-20T06:07:40.360Z,96.80
2019-02-20T06:08:40.379Z,96.73
2019-02-20T06:09:40.321Z,96.63
2019-02-20T06:10:40.313Z,96.73
2019-02-20T06:11:40.300Z,96.59
2019-02-20T06:12:40.306Z,96.06
2019-02-20T06:13:40.314Z,96.63
2019-02-20T06:14:40.268Z,96.73
2019-02-20T06:15:40.260Z,96.11
2019-02-20T06:16:40.246Z,96.63
2019-02-20T06:17:40.259Z,96.73
2019-02-20T06:18:40.239Z,96.94
2019-02-20T06:19:40.257Z,96.84
2019-02-20T06:20:40.225Z,96.94
2019-02-20T06:21:40.190Z,97.16
2019-02-20T06:22:40.190Z,97.36
2019-02-20T06:23:40.184Z,97.47
2019-02-20T06:24:44.060Z,97.68
2019-02-20T06:25:40.153Z,97.78
2019-02-20T06:26:40.136Z,98.21
2019-02-20T06:27:40.127Z,98.26
2019-02-20T06:28:40.133Z,98.41
2019-02-20T06:29:40.113Z,98.72
2019-02-20T06:30:40.099Z,97.78
2019-02-20T06:31:40.094Z,97.47
2019-02-20T06:32:40.069Z,98.26
2019-02-20T06:33:40.074Z,98.41
2019-02-20T06:34:40.048Z,97.99
2019-02-20T06:35:40.047Z,98.21
2019-02-20T06:36:40.028Z,98.21
2019-02-20T06:37:40.032Z,98.62
2019-02-20T06:38:40.017Z,98.52
2019-02-20T06:39:39.993Z,98.31
2019-02-20T06:40:39.990Z,98.31
2019-02-20T06:41:39.976Z,98.10
2019-02-20T06:42:39.966Z,98.35
2019-02-20T06:43:39.960Z,98.62
2019-02-20T06:44:39.962Z,98.83
2019-02-20T06:45:39.928Z,99.15
2019-02-20T06:46:39.926Z,99.15
2019-02-20T06:47:39.926Z,99.31
2019-02-20T06:48:39.930Z,98.94
2019-02-20T06:49:39.885Z,99.31
2019-02-20T06:50:39.885Z,99.73
2019-02-20T06:51:39.890Z,99.67
2019-02-20T06:52:39.860Z,98.89
2019-02-20T06:53:39.863Z,98.89
2019-02-20T06:54:39.828Z,99.10
2019-02-20T06:55:39.827Z,99.00
2019-02-20T06:56:39.834Z,99.10
2019-02-20T06:57:39.795Z,99.21
2019-02-20T06:58:39.846Z,99.21
2019-02-20T06:59:39.779Z,99.21
2019-02-20T07:00:39.768Z,99.21
2019-02-20T07:01:39.752Z,99.63
2019-02-20T07:02:39.774Z,99.94
2019-02-20T07:03:39.740Z,99.21
2019-02-20T07:04:39.797Z,99.31
2019-02-20T07:05:39.709Z,99.90
2019-02-20T07:06:39.706Z,99.73
2019-02-20T07:07:39.740Z,99.79
2019-02-20T07:08:39.696Z,99.48
2019-02-20T07:09:39.713Z,99.58
2019-02-20T07:10:39.659Z,99.68
2019-02-20T07:11:39.696Z,99.48
2019-02-20T07:12:39.648Z,99.64
2019-02-20T07:13:39.644Z,99.32
2019-02-20T07:14:39.626Z,99.22
2019-02-20T07:15:39.601Z,99.64
2019-02-20T07:16:39.596Z,99.43
2019-02-20T07:17:39.587Z,99.64
2019-02-20T07:18:39.576Z,99.59
2019-02-20T07:19:39.581Z,99.59
2019-02-20T07:20:39.556Z,99.59
2019-02-20T07:21:39.534Z,98.97
2019-02-20T07:22:39.525Z,99.38
2019-02-20T07:23:39.511Z,99.49
2019-02-20T07:24:39.507Z,99.38
2019-02-20T07:25:39.491Z,98.34
2019-02-20T07:26:39.501Z,97.92
2019-02-20T07:27:39.647Z,98.24
2019-02-20T07:28:39.488Z,97.92
2019-02-20T07:29:39.471Z,98.55
2019-02-20T07:30:39.434Z,98.86
2019-02-20T07:31:39.431Z,98.24
2019-02-20T07:32:39.424Z,97.92
2019-02-20T07:33:39.409Z,98.24
2019-02-20T07:34:39.474Z,97.92
2019-02-20T07:35:39.427Z,98.02
2019-02-20T07:36:39.413Z,98.24
2019-02-20T07:37:39.362Z,98.24
2019-02-20T07:38:39.348Z,98.65
2019-02-20T07:39:39.337Z,98.24
2019-02-20T07:40:39.334Z,98.24
2019-02-20T07:41:39.326Z,98.55
2019-02-20T07:42:39.310Z,98.55
2019-02-20T07:43:39.302Z,98.55
2019-02-20T07:44:39.299Z,97.71
2019-02-20T07:45:39.315Z,98.24
2019-02-20T07:46:39.302Z,98.24
2019-02-20T07:47:39.279Z,97.71
2019-02-20T07:48:39.241Z,97.92
2019-02-20T07:49:39.230Z,98.24
2019-02-20T07:50:39.221Z,97.92
2019-02-20T07:51:39.210Z,98.44
2019-02-20T07:52:39.197Z,97.98
2019-02-20T07:53:39.190Z,97.56
2019-02-20T07:54:39.194Z,97.25
2019-02-20T07:55:39.165Z,97.77
2019-02-20T07:56:39.153Z,97.88
2019-02-20T07:57:39.143Z,97.67
2019-02-20T07:58:39.141Z,96.89
2019-02-20T07:59:39.122Z,96.58
2019-02-20T08:00:39.120Z,96.72
2019-02-20T08:01:39.100Z,97.20
2019-02-20T08:02:39.084Z,97.83
2019-02-20T08:03:39.102Z,97.41
2019-02-20T08:04:39.063Z,97.31
2019-02-20T08:05:39.070Z,96.58
2019-02-20T08:06:39.049Z,96.58
2019-02-20T08:07:39.037Z,96.47
2019-02-20T08:08:39.019Z,95.95
2019-02-20T08:09:39.018Z,97.00
2019-02-20T08:10:39.122Z,96.89
2019-02-20T08:11:39.006Z,97.00
2019-02-20T08:12:38.979Z,96.89
2019-02-20T08:13:39.597Z,96.53
2019-02-20T08:14:38.961Z,96.64
2019-02-20T08:15:38.963Z,96.17
2019-02-20T08:16:38.941Z,95.28
2019-02-20T08:17:38.923Z,95.59
2019-02-20T08:18:38.931Z,96.33
2019-02-20T08:19:38.906Z,95.70
2019-02-20T08:20:38.912Z,97.05
2019-02-20T08:21:38.884Z,96.64
2019-02-20T08:22:38.868Z,96.43
2019-02-20T08:23:38.877Z,96.53
2019-02-20T08:24:38.854Z,96.80
2019-02-20T08:25:38.867Z,96.91
2019-02-20T08:26:38.833Z,96.49
2019-02-20T08:27:38.819Z,96.80
2019-02-20T08:28:38.834Z,96.70
2019-02-20T08:29:38.801Z,96.91
2019-02-20T08:30:38.780Z,96.59
2019-02-20T08:31:38.775Z,96.76
2019-02-20T08:32:38.761Z,96.97
2019-02-20T08:33:38.757Z,96.86
2019-02-20T08:34:38.800Z,96.76
2019-02-20T08:35:38.727Z,96.34
2019-02-20T08:36:38.734Z,96.44
2019-02-20T08:37:38.718Z,96.38
2019-02-20T08:38:38.696Z,96.23
2019-02-20T08:39:38.688Z,96.03
2019-02-20T08:40:38.688Z,96.86
2019-02-20T08:41:38.672Z,96.66
2019-02-20T08:42:40.586Z,96.23
2019-02-20T08:43:38.649Z,96.13
2019-02-20T08:44:38.633Z,96.23
2019-02-20T08:45:38.627Z,96.13
2019-02-20T08:46:38.632Z,96.55
2019-02-20T08:47:38.599Z,96.66
2019-02-20T08:48:38.591Z,95.92
2019-02-20T08:49:38.598Z,96.23
2019-02-20T08:50:38.572Z,95.67
2019-02-20T08:51:38.569Z,96.97
2019-02-20T08:52:38.552Z,96.44
2019-02-20T08:53:38.543Z,96.61
2019-02-20T08:54:38.527Z,96.40
2019-02-20T08:55:38.511Z,96.71
2019-02-20T08:56:38.502Z,96.09
2019-02-20T08:57:38.490Z,96.50
2019-02-20T08:58:38.480Z,96.09
2019-02-20T08:59:38.468Z,95.46
2019-02-20T09:00:38.476Z,95.46
2019-02-20T09:01:38.538Z,95.36
2019-02-20T09:02:38.435Z,95.42
2019-02-20T09:03:38.434Z,96.15
2019-02-20T09:04:38.413Z,96.15
2019-02-20T09:05:38.402Z,96.15
2019-02-20T09:06:38.393Z,96.25
2019-02-20T09:07:38.385Z,96.25
2019-02-20T09:08:38.399Z,96.15
2019-02-20T09:09:38.382Z,95.31
2019-02-20T09:10:38.363Z,95.67
2019-02-20T09:11:38.358Z,95.21
2019-02-20T09:12:38.341Z,96.25
2019-02-20T09:13:38.318Z,95.21
2019-02-20T09:14:38.305Z,95.31
2019-02-20T09:15:38.296Z,95.42
2019-02-20T09:16:38.294Z,94.79
2019-02-20T09:17:38.278Z,93.91
2019-02-20T09:18:38.262Z,94.37
2019-02-20T09:19:38.254Z,95.17
2019-02-20T09:20:38.240Z,95.21
2019-02-20T09:21:38.231Z,95.21
2019-02-20T09:22:39.560Z,94.96
2019-02-20T09:23:38.212Z,94.54
2019-02-20T09:24:38.198Z,94.96
2019-02-20T09:25:41.662Z,95.06
2019-02-20T09:26:38.189Z,94.58
2019-02-20T09:27:38.171Z,94.79
2019-02-20T09:28:38.158Z,94.96
2019-02-20T09:29:38.159Z,94.54
2019-02-20T09:30:38.135Z,94.12
2019-02-20T09:31:38.127Z,93.50
2019-02-20T09:32:38.138Z,93.18
2019-02-20T09:33:38.104Z,93.18
2019-02-20T09:34:38.095Z,93.71
2019-02-20T09:35:38.077Z,93.77
2019-02-20T09:36:38.067Z,94.08
2019-02-20T09:37:38.058Z,93.93
2019-02-20T09:38:38.058Z,92.99
2019-02-20T09:39:38.034Z,93.10
2019-02-20T09:40:38.023Z,93.16
2019-02-20T09:41:38.016Z,91.91
2019-02-20T09:42:38.011Z,91.28
2019-02-20T09:43:37.990Z,90.45
2019-02-20T09:44:38.002Z,90.10
2019-02-20T09:45:42.176Z,91.00
2019-02-20T09:46:38.963Z,89.64
2019-02-20T09:47:37.961Z,89.64
2019-02-20T09:48:37.941Z,89.18
2019-02-20T09:49:37.933Z,89.08
2019-02-20T09:50:37.922Z,87.94
2019-02-20T09:51:37.905Z,88.46
2019-02-20T09:52:37.905Z,88.46
2019-02-20T09:53:37.882Z,87.63
2019-02-20T09:54:37.870Z,87.84
2019-02-20T09:55:37.860Z,87.21
2019-02-20T09:56:37.853Z,87.73
2019-02-20T09:57:37.871Z,87.88
2019-02-20T09:58:37.834Z,87.56
2019-02-20T09:59:37.836Z,87.56
2019-02-20T10:00:37.804Z,86.90
2019-02-20T10:01:37.798Z,87.11
2019-02-20T10:02:37.789Z,88.15
2019-02-20T10:03:37.773Z,86.80
2019-02-20T10:04:37.765Z,86.90
2019-02-20T10:05:37.776Z,86.55
2019-02-20T10:06:37.758Z,86.96
2019-02-20T10:07:37.743Z,86.86
2019-02-20T10:08:37.729Z,86.55
2019-02-20T10:09:37.709Z,86.76
2019-02-20T10:10:37.699Z,86.51
2019-02-20T10:11:37.692Z,86.82
2019-02-20T10:12:37.693Z,86.41
2019-02-20T10:13:37.668Z,86.82
2019-02-20T10:14:37.662Z,86.72
2019-02-20T10:15:37.648Z,85.95
2019-02-20T10:16:37.640Z,86.26
2019-02-20T10:17:37.624Z,86.64
2019-02-20T10:18:37.632Z,85.50
2019-02-20T10:19:37.604Z,85.19
2019-02-20T10:20:37.609Z,85.08
2019-02-20T10:21:37.584Z,84.36
2019-02-20T10:22:37.573Z,84.42
2019-02-20T10:23:37.564Z,84.25
2019-02-20T10:24:37.552Z,84.52
2019-02-20T10:25:37.549Z,83.94
2019-02-20T10:26:37.524Z,84.67
2019-02-20T10:27:37.536Z,84.15
2019-02-20T10:28:37.529Z,84.00
2019-02-20T10:29:37.497Z,84.63
2019-02-20T10:30:37.487Z,84.42
2019-02-20T10:31:37.474Z,84.59
2019-02-20T10:32:37.465Z,84.38
2019-02-20T10:33:37.463Z,84.28
2019-02-20T10:34:37.439Z,82.79
2019-02-20T10:35:37.440Z,83.72
2019-02-20T10:36:37.419Z,83.24
2019-02-20T10:37:37.409Z,83.24
2019-02-20T10:38:37.415Z,83.24
2019-02-20T10:39:37.383Z,83.97
2019-02-20T10:40:37.373Z,81.79
2019-02-20T10:41:37.374Z,81.79
2019-02-20T10:42:37.368Z,82.55
2019-02-20T10:43:37.414Z,83.14
2019-02-20T10:44:37.328Z,83.34
2019-02-20T10:45:37.321Z,82.31
2019-02-20T10:46:37.308Z,82.41
2019-02-20T10:47:37.298Z,81.89
2019-02-20T10:48:37.299Z,81.79
2019-02-20T10:49:37.319Z,83.14
2019-02-20T10:50:37.284Z,81.68
2019-02-20T10:51:37.264Z,81.89
2019-02-20T10:52:37.252Z,81.99
2019-02-20T10:53:37.233Z,83.34
2019-02-20T10:54:37.224Z,82.31
2019-02-20T10:55:37.294Z,82.27
2019-02-20T10:56:37.206Z,81.85
2019-02-20T10:57:37.195Z,82.06
2019-02-20T10:58:37.218Z,82.23
2019-02-20T10:59:37.171Z,81.78
2019-02-20T11:00:37.164Z,80.36
2019-02-20T11:01:37.147Z,80.36
2019-02-20T11:02:37.135Z,80.22
2019-02-20T11:03:37.131Z,80.54
2019-02-20T11:04:37.123Z,79.81
2019-02-20T11:05:37.107Z,80.12
2019-02-20T11:06:37.151Z,80.64
2019-02-20T11:07:37.096Z,78.26
2019-02-20T11:08:37.069Z,78.99
2019-02-20T11:09:37.065Z,79.71
2019-02-20T11:10:37.076Z,79.77
2019-02-20T11:11:37.067Z,79.67
2019-02-20T11:12:37.023Z,78.12
2019-02-20T11:13:37.014Z,78.64
2019-02-20T11:14:37.814Z,79.74
2019-02-20T11:15:37.009Z,78.98
2019-02-20T11:16:36.990Z,77.64
2019-02-20T11:17:37.498Z,77.12
2019-02-20T11:18:36.960Z,76.70
2019-02-20T11:19:36.955Z,76.50
2019-02-20T11:20:36.935Z,76.77
2019-02-20T11:21:36.930Z,76.05
2019-02-20T11:22:36.927Z,76.26
2019-02-20T11:23:36.905Z,75.67
2019-02-20T11:24:36.902Z,76.60
2019-02-20T11:25:36.885Z,76.18
2019-02-20T11:26:46.049Z,76.26
2019-02-20T11:27:39.475Z,76.18
2019-02-20T11:28:36.848Z,75.98
2019-02-20T11:29:36.854Z,76.09
2019-02-20T11:30:36.849Z,76.39
2019-02-20T11:31:36.815Z,75.63
2019-02-20T11:32:36.801Z,75.29
2019-02-20T11:33:36.790Z,74.95
2019-02-20T11:34:36.812Z,73.68
2019-02-20T11:35:36.771Z,72.54
2019-02-20T11:36:36.756Z,71.34
2019-02-20T11:37:36.747Z,70.89
2019-02-20T11:38:36.737Z,70.07
2019-02-20T11:39:37.964Z,70.17
2019-02-20T11:40:36.715Z,69.35
2019-02-20T11:41:36.706Z,68.80
2019-02-20T11:42:36.692Z,68.90
2019-02-20T11:43:36.683Z,69.07
2019-02-20T11:44:36.671Z,68.87
2019-02-20T11:45:36.666Z,68.53
2019-02-20T11:46:36.647Z,68.22
2019-02-20T11:47:36.637Z,67.71
2019-02-20T11:48:36.631Z,67.74
2019-02-20T11:49:36.617Z,68.25
2019-02-20T11:50:36.610Z,69.18
2019-02-20T11:51:36.594Z,69.59
2019-02-20T11:52:38.594Z,69.21
2019-02-20T11:53:37.425Z,69.11
2019-02-20T11:54:36.588Z,69.42
2019-02-20T11:55:36.563Z,68.90
2019-02-20T11:56:36.547Z,69.73
2019-02-20T11:57:36.543Z,68.77
2019-02-20T11:58:36.572Z,68.46
2019-02-20T11:59:36.504Z,69.07
2019-02-20T12:00:36.535Z,68.70
2019-02-20T12:01:36.483Z,69.11
2019-02-20T12:02:37.622Z,69.52
2019-02-20T12:03:36.513Z,68.87
2019-02-20T12:04:36.483Z,69.18
2019-02-20T12:05:36.458Z,68.77
2019-02-20T12:06:36.432Z,68.87
2019-02-20T12:07:36.417Z,68.98
2019-02-20T12:08:36.412Z,69.18
2019-02-20T12:09:36.437Z,68.98
2019-02-20T12:10:36.717Z,69.38
2019-02-20T12:11:36.377Z,69.49
2019-02-20T12:12:36.365Z,69.28
2019-02-20T12:13:36.368Z,69.18
2019-02-20T12:14:36.342Z,69.49
2019-02-20T12:15:36.356Z,69.38
2019-02-20T12:16:36.359Z,69.90
2019-02-20T12:17:36.338Z,70.00
2019-02-20T12:18:36.300Z,70.65
2019-02-20T12:19:36.288Z,70.86
2019-02-20T12:20:36.296Z,70.55
2019-02-20T12:21:36.272Z,70.86
2019-02-20T12:22:36.283Z,70.86
2019-02-20T12:23:36.852Z,70.89
2019-02-20T12:24:36.245Z,71.41
2019-02-20T12:25:36.258Z,71.13
2019-02-20T12:26:36.285Z,72.16
2019-02-20T12:27:36.200Z,72.99
2019-02-20T12:28:36.210Z,72.40
2019-02-20T12:29:36.201Z,72.71
2019-02-20T12:30:38.012Z,73.85
2019-02-20T12:31:36.225Z,73.54
2019-02-20T12:32:36.147Z,73.54
2019-02-20T12:33:36.146Z,74.26
2019-02-20T12:34:36.138Z,73.43
2019-02-20T12:35:36.238Z,73.95
2019-02-20T12:36:36.159Z,73.40
2019-02-20T12:37:36.134Z,73.54
2019-02-20T12:38:37.209Z,72.88
2019-02-20T12:39:36.080Z,72.54
2019-02-20T12:40:36.089Z,72.85
2019-02-20T12:41:36.075Z,72.85
2019-02-20T12:42:36.043Z,73.16
2019-02-20T12:43:36.047Z,73.57
2019-02-20T12:44:36.014Z,72.20
2019-02-20T12:45:36.019Z,72.09
2019-02-20T12:46:36.007Z,71.99
2019-02-20T12:47:35.992Z,72.41
2019-02-20T12:48:35.975Z,71.99
2019-02-20T12:49:35.959Z,72.41
2019-02-20T12:50:35.972Z,71.99
2019-02-20T12:51:35.956Z,71.37
2019-02-20T12:52:35.943Z,71.48